Time;durP1;ratioP1;P1;durP2;ratioP2;P2;SDS_P1;SDS_P2;PMS_P1;PMS_P2;Temp;Humidity;BMP_temperature;BMP_pressure;BME280_temperature;BME280_humidity;BME280_pressure;Samples;Min_cycle;Max_cycle;Signal;HPM_P1;HPM_P2
2021/01/19 00:02:01;;;;;;;8.00;5.97;;;6.00;99.90;;;;;;5075131;28;20210;-68
2021/01/19 00:04:26;;;;;;;5.90;3.70;;;6.10;99.90;;;;;;5075239;28;20180;-68
2021/01/19 00:06:52;;;;;;;7.83;3.90;;;5.80;99.90;;;;;;5075257;28;20164;-68
2021/01/19 00:09:18;;;;;;;4.53;2.70;;;5.80;99.90;;;;;;5075044;28;20245;-68
2021/01/19 00:11:43;;;;;;;4.60;3.57;;;5.90;99.90;;;;;;5074944;28;20541;-68
2021/01/19 00:14:09;;;;;;;6.03;2.93;;;5.90;99.90;;;;;;5074848;28;20217;-68
2021/01/19 00:16:34;;;;;;;7.73;3.20;;;6.00;99.90;;;;;;5074871;28;20247;-68
2021/01/19 00:19:00;;;;;;;6.40;3.03;;;6.00;99.90;;;;;;5074796;28;20160;-68
2021/01/19 00:21:25;;;;;;;7.70;2.77;;;5.90;99.90;;;;;;5074724;28;20207;-68
2021/01/19 00:23:51;;;;;;;7.13;2.50;;;6.00;99.90;;;;;;5073424;28;20229;-68
2021/01/19 00:26:16;;;;;;;4.10;2.50;;;6.00;99.90;;;;;;5074701;28;20165;-68
2021/01/19 00:28:42;;;;;;;3.97;2.50;;;6.00;99.90;;;;;;5074628;28;20661;-68
2021/01/19 00:31:09;;;;;;;3.90;2.87;;;5.90;99.90;;;;;;5074451;28;20188;-68
2021/01/19 00:33:35;;;;;;;2.22;1.85;;;6.00;99.90;;;;;;5074525;28;20156;-68
2021/01/19 00:36:00;;;;;;;4.45;2.15;;;6.00;68.90;;;;;;5074605;28;20161;-68
2021/01/19 00:38:26;;;;;;;4.50;2.30;;;6.10;45.80;;;;;;5074359;28;20173;-68
2021/01/19 00:40:51;;;;;;;5.00;2.80;;;6.10;46.30;;;;;;5074512;28;20195;-68
2021/01/19 00:43:17;;;;;;;7.80;2.87;;;6.10;52.80;;;;;;5074279;28;20191;-68
2021/01/19 00:45:42;;;;;;;6.80;2.00;;;6.20;48.70;;;;;;5074515;28;20200;-68
2021/01/19 00:48:08;;;;;;;3.93;2.03;;;6.00;43.80;;;;;;5073999;28;20672;-68
2021/01/19 00:50:34;;;;;;;2.47;1.77;;;5.90;54.80;;;;;;5074128;28;20237;-68
2021/01/19 00:52:59;;;;;;;2.83;1.93;;;6.10;39.30;;;;;;5074029;28;20160;-68
2021/01/19 00:55:25;;;;;;;3.10;1.80;;;6.10;21.70;;;;;;5074036;28;20176;-68
2021/01/19 00:57:51;;;;;;;6.90;1.97;;;6.10;28.60;;;;;;5074324;28;20178;-68
2021/01/19 01:00:17;;;;;;;3.20;1.90;;;6.10;29.80;;;;;;5074200;28;20196;-68
2021/01/19 01:02:42;;;;;;;4.13;2.10;;;6.10;29.80;;;;;;5073195;28;20671;-68
2021/01/19 01:05:09;;;;;;;5.77;2.37;;;6.10;15.60;;;;;;5073788;28;20171;-68
2021/01/19 01:07:38;;;;;;;8.05;2.50;;;6.00;27.40;;;;;;5073698;28;20687;-68
2021/01/19 01:10:07;;;;;;;4.78;2.35;;;5.90;23.40;;;;;;5073634;28;20652;-68
2021/01/19 01:12:33;;;;;;;2.70;1.70;;;6.00;33.50;;;;;;5073677;28;20251;-68
2021/01/19 01:14:59;;;;;;;2.37;1.40;;;6.00;18.80;;;;;;5073925;28;20298;-68
2021/01/19 01:17:24;;;;;;;12.55;2.40;;;6.00;11.70;;;;;;5073626;28;20409;-68
2021/01/19 01:19:50;;;;;;;6.20;1.83;;;5.90;17.50;;;;;;5073574;28;20574;-68
2021/01/19 01:22:16;;;;;;;5.67;1.90;;;5.90;24.20;;;;;;5073489;28;20251;-67
2021/01/19 01:24:42;;;;;;;3.10;1.53;;;5.90;25.60;;;;;;5072205;28;20179;-68
2021/01/19 01:27:07;;;;;;;5.30;1.83;;;6.00;13.90;;;;;;5073353;28;20606;-68
2021/01/19 01:29:33;;;;;;;4.20;2.33;;;6.00;14.10;;;;;;5073318;28;20430;-68
2021/01/19 01:31:59;;;;;;;2.40;1.43;;;6.10;15.30;;;;;;5073328;28;20534;-68
2021/01/19 01:34:24;;;;;;;2.50;1.70;;;6.00;7.50;;;;;;5073337;28;20195;-68
2021/01/19 01:36:50;;;;;;;3.70;2.13;;;6.00;12.80;;;;;;5073277;28;20663;-68
2021/01/19 01:39:16;;;;;;;7.47;2.27;;;6.00;13.80;;;;;;5073142;28;20187;-68
2021/01/19 01:41:41;;;;;;;6.07;2.20;;;6.00;10.90;;;;;;5073236;28;20171;-68
2021/01/19 01:44:07;;;;;;;4.10;1.90;;;6.10;12.60;;;;;;5073216;28;20175;-68
2021/01/19 01:46:35;;;;;;;3.37;2.10;;;6.00;8.00;;;;;;5073207;28;20164;-68
2021/01/19 01:49:01;;;;;;;3.90;2.13;;;6.00;10.50;;;;;;5072967;28;20200;-69
2021/01/19 01:51:28;;;;;;;6.68;2.10;;;5.90;14.90;;;;;;5073114;28;20164;-68
2021/01/19 01:53:56;;;;;;;2.70;1.83;;;6.00;5.60;;;;;;5073091;28;20174;-67
2021/01/19 01:56:22;;;;;;;3.53;2.25;;;6.00;3.50;;;;;;5073372;28;20171;-68
2021/01/19 01:58:48;;;;;;;4.32;2.10;;;5.80;17.80;;;;;;5073070;28;20228;-68
2021/01/19 02:01:14;;;;;;;4.30;2.30;;;5.80;11.30;;;;;;5072997;28;20693;-68
2021/01/19 02:03:40;;;;;;;3.90;2.00;;;5.70;26.60;;;;;;5073037;28;20180;-68
2021/01/19 02:06:06;;;;;;;2.80;1.93;;;5.80;7.40;;;;;;5072971;28;20397;-68
2021/01/19 02:08:55;;;;;;;8.70;2.13;;;5.80;3.60;;;;;;5072895;28;20200;-68
2021/01/19 02:11:27;;;;;;;2.53;1.90;;;5.90;1.00;;;;;;5072937;28;20164;-68
2021/01/19 02:13:56;;;;;;;8.52;2.05;;;5.80;1.00;;;;;;5075476;28;20156;-68
2021/01/19 02:16:30;;;;;;;4.13;1.75;;;5.80;1.00;;;;;;5077209;28;20670;-71
2021/01/19 02:19:14;;;;;;;3.25;1.92;;;5.70;1.00;;;;;;5077378;28;20557;-68
2021/01/19 02:22:17;;;;;;;6.55;1.77;;;5.80;1.00;;;;;;5078006;28;20160;-68
2021/01/19 02:25:22;;;;;;;6.40;1.70;;;5.80;1.00;;;;;;5077472;28;20513;-68
2021/01/19 02:28:04;;;;;;;8.32;2.45;;;5.70;1.00;;;;;;5055351;28;20207;-68
2021/01/19 02:30:51;;;;;;;5.07;2.10;;;5.70;1.00;;;;;;5076954;28;20192;-68
2021/01/19 02:33:38;;;;;;;5.82;2.30;;;5.70;1.00;;;;;;5076691;28;20164;-68
2021/01/19 02:36:37;;;;;;;6.35;1.88;;;5.60;1.00;;;;;;5076648;28;20160;-68
2021/01/19 02:39:04;;;;;;;9.48;2.17;;;5.50;1.00;;;;;;5077001;28;20149;-68
2021/01/19 02:41:31;;;;;;;6.32;1.55;;;5.50;1.00;;;;;;5076520;28;20168;-68
2021/01/19 02:44:20;;;;;;;7.03;2.33;;;5.50;1.00;;;;;;5076514;28;20206;-68
2021/01/19 02:46:54;;;;;;;3.63;1.60;;;5.50;1.00;;;;;;5076689;28;20259;-68
2021/01/19 02:49:21;;;;;;;4.55;1.92;;;5.50;1.00;;;;;;5076186;28;20211;-68
2021/01/19 02:51:49;;;;;;;7.10;2.13;;;5.60;1.00;;;;;;5076332;28;20205;-68
2021/01/19 02:54:16;;;;;;;3.88;1.90;;;5.50;1.00;;;;;;5076260;28;20638;-68
2021/01/19 02:56:53;;;;;;;5.30;2.63;;;5.40;1.00;;;;;;5076257;28;20172;-68
2021/01/19 02:59:43;;;;;;;4.97;2.70;;;5.50;1.00;;;;;;5076144;28;20676;-68
2021/01/19 03:02:19;;;;;;;5.70;2.38;;;5.40;1.00;;;;;;5076460;28;20170;-68
2021/01/19 03:04:46;;;;;;;4.68;2.45;;;5.40;1.00;;;;;;5076078;28;20156;-68
2021/01/19 03:07:14;;;;;;;6.65;1.90;;;5.40;1.00;;;;;;5075976;28;20172;-68
2021/01/19 03:09:40;;;;;;;7.60;2.17;;;5.40;1.00;;;;;;5075918;28;20179;-68
2021/01/19 03:12:12;;;;;;;4.25;2.33;;;5.20;1.00;;;;;;5075938;28;20179;-68
2021/01/19 03:14:40;;;;;;;3.55;2.10;;;5.40;1.00;;;;;;5075881;28;20247;-68
2021/01/19 03:17:08;;;;;;;4.53;2.60;;;5.30;1.00;;;;;;5075875;28;20506;-68
2021/01/19 03:19:37;;;;;;;5.22;2.08;;;5.30;1.00;;;;;;5075731;28;20187;-68
2021/01/19 03:22:03;;;;;;;56.38;32.17;;;5.30;1.00;;;;;;5076084;28;20671;-68
2021/01/19 03:24:28;;;;;;;4.17;1.67;;;5.50;1.00;;;;;;5075037;28;20273;-68
2021/01/19 03:26:54;;;;;;;5.30;1.53;;;5.50;1.00;;;;;;5075705;28;20198;-67
2021/01/19 03:29:20;;;;;;;5.47;1.90;;;5.50;1.00;;;;;;5075540;28;20947;-68
2021/01/19 03:31:45;;;;;;;9.37;1.80;;;5.50;1.00;;;;;;5075593;28;20583;-68
2021/01/19 03:34:11;;;;;;;6.20;1.50;;;5.40;1.00;;;;;;5075533;28;20168;-68
2021/01/19 03:36:36;;;;;;;4.73;2.80;;;5.50;1.00;;;;;;5075490;28;20253;-68
2021/01/19 03:39:03;;;;;;;2.07;1.10;;;5.40;1.00;;;;;;5075381;28;20172;-69
2021/01/19 03:41:28;;;;;;;4.30;1.83;;;5.40;1.00;;;;;;5075357;28;20255;-68
2021/01/19 03:43:54;;;;;;;7.10;1.33;;;5.40;1.00;;;;;;5075387;28;20199;-67
2021/01/19 03:46:19;;;;;;;8.37;1.77;;;5.50;1.00;;;;;;5075459;28;20217;-68
2021/01/19 03:48:45;;;;;;;4.20;1.90;;;5.30;1.00;;;;;;5075127;28;20204;-68
2021/01/19 03:51:10;;;;;;;3.43;1.60;;;5.30;1.00;;;;;;5075174;28;20530;-68
2021/01/19 03:53:36;;;;;;;3.50;1.50;;;5.40;1.00;;;;;;5075154;28;20242;-68
2021/01/19 03:56:02;;;;;;;4.67;1.50;;;5.50;1.00;;;;;;5075153;28;20164;-68
2021/01/19 03:58:28;;;;;;;6.43;1.75;;;5.50;1.00;;;;;;5075091;28;20164;-68
2021/01/19 04:00:53;;;;;;;7.40;1.97;;;5.40;1.00;;;;;;5075308;28;20553;-68
2021/01/19 04:03:19;;;;;;;3.57;2.13;;;5.40;1.00;;;;;;5075498;28;20619;-68
2021/01/19 04:05:44;;;;;;;9.50;2.30;;;5.50;1.00;;;;;;5074951;28;20176;-68
2021/01/19 04:08:10;;;;;;;9.67;1.73;;;5.50;1.00;;;;;;5074880;28;20196;-68
2021/01/19 04:10:36;;;;;;;2.67;1.60;;;5.40;1.00;;;;;;5075021;28;20259;-68
2021/01/19 04:13:01;;;;;;;5.17;1.37;;;5.30;1.00;;;;;;5074864;28;20574;-68
2021/01/19 04:15:27;;;;;;;6.10;1.97;;;5.40;1.00;;;;;;5074753;28;20535;-68
2021/01/19 04:17:52;;;;;;;7.77;1.83;;;5.60;1.00;;;;;;5074639;28;20175;-68
2021/01/19 04:20:18;;;;;;;2.40;1.57;;;5.50;1.00;;;;;;5074523;28;20192;-68
2021/01/19 04:22:43;;;;;;;4.23;1.33;;;5.50;1.00;;;;;;5074546;28;20172;-68
2021/01/19 04:25:09;;;;;;;4.40;1.77;;;5.50;1.00;;;;;;5074524;28;20164;-68
2021/01/19 04:27:35;;;;;;;7.47;1.60;;;5.50;1.00;;;;;;5074339;28;20223;-68
2021/01/19 04:30:07;;;;;;;4.23;1.50;;;5.40;1.00;;;;;;5074322;28;20850;-68
2021/01/19 04:32:36;;;;;;;5.50;1.98;;;5.40;1.00;;;;;;5074637;28;20231;-68
2021/01/19 04:35:03;;;;;;;5.30;1.65;;;5.40;1.00;;;;;;5072907;28;20174;-68
2021/01/19 04:37:28;;;;;;;4.93;1.85;;;5.40;1.00;;;;;;5073149;28;20164;-68
2021/01/19 04:39:54;;;;;;;2.50;2.07;;;5.50;1.00;;;;;;5074138;28;20215;-68
2021/01/19 04:42:20;;;;;;;9.50;2.30;;;5.50;1.00;;;;;;5074137;28;20213;-68
2021/01/19 04:44:48;;;;;;;8.35;1.50;;;5.60;1.00;;;;;;5074388;28;20458;-68
2021/01/19 04:47:16;;;;;;;8.98;1.42;;;5.60;1.00;;;;;;5073837;28;20171;-68
2021/01/19 04:49:44;;;;;;;5.55;1.95;;;5.50;1.00;;;;;;5074116;28;20302;-68
2021/01/19 04:52:15;;;;;;;4.75;1.60;;;5.50;1.00;;;;;;5074255;28;20597;-68
2021/01/19 04:54:59;;;;;;;6.80;2.00;;;5.50;1.00;;;;;;5073888;28;20155;-67
2021/01/19 04:57:30;;;;;;;3.08;1.67;;;5.50;1.00;;;;;;5073843;28;20632;-68
2021/01/19 05:00:11;;;;;;;4.18;1.80;;;5.50;1.00;;;;;;5073668;28;20564;-68
2021/01/19 05:02:40;;;;;;;3.45;1.52;;;5.50;1.00;;;;;;5073593;28;20455;-67
2021/01/19 05:05:25;;;;;;;4.13;2.63;;;5.50;1.00;;;;;;5073439;28;20174;-68
2021/01/19 05:08:02;;;;;;;5.45;1.42;;;5.50;1.00;;;;;;5073629;28;20194;-68
2021/01/19 05:10:35;;;;;;;4.35;1.92;;;5.60;1.00;;;;;;5073528;28;20179;-68
2021/01/19 05:13:11;;;;;;;6.70;2.10;;;5.50;1.00;;;;;;5073384;28;20245;-68
2021/01/19 05:15:44;;;;;;;2.50;1.35;;;5.50;1.00;;;;;;5073624;28;20175;-68
2021/01/19 05:18:11;;;;;;;9.88;2.00;;;5.40;1.00;;;;;;5073555;28;20175;-68
2021/01/19 05:21:00;;;;;;;6.43;1.90;;;5.40;1.00;;;;;;5073173;28;20208;-68
2021/01/19 05:23:26;;;;;;;3.45;2.25;;;5.40;24.70;;;;;;5073548;28;20206;-68
2021/01/19 05:25:52;;;;;;;3.20;1.53;;;5.40;20.30;;;;;;5073683;28;20168;-68
2021/01/19 05:28:19;;;;;;;6.30;2.03;;;5.50;12.60;;;;;;5073345;28;20199;-68
2021/01/19 05:30:52;;;;;;;8.88;2.05;;;5.50;15.00;;;;;;5073179;28;20192;-68
2021/01/19 05:33:17;;;;;;;7.68;1.98;;;5.40;5.60;;;;;;5073500;28;20160;-68
2021/01/19 05:35:43;;;;;;;4.80;1.97;;;5.40;40.20;;;;;;5071908;28;20168;-68
2021/01/19 05:38:08;;;;;;;7.90;1.60;;;5.50;55.70;;;;;;5073480;28;20243;-68
2021/01/19 05:40:42;;;;;;;3.10;1.70;;;5.30;51.20;;;;;;5073045;28;20195;-68
2021/01/19 05:43:10;;;;;;;7.93;2.10;;;5.20;99.90;;;;;;5073153;28;20152;-68
2021/01/19 05:45:36;;;;;;;4.60;2.15;;;5.40;99.90;;;;;;5073045;28;20168;-68
2021/01/19 05:48:13;;;;;;;6.73;1.70;;;5.30;87.90;;;;;;5072520;28;20221;-67
2021/01/19 05:50:39;;;;;;;9.77;3.20;;;5.40;99.90;;;;;;5073319;28;20194;-68
2021/01/19 05:53:13;;;;;;;4.53;1.73;;;5.40;99.90;;;;;;5072980;28;20168;-68
2021/01/19 05:55:41;;;;;;;6.53;1.83;;;5.30;99.90;;;;;;5073107;28;20157;-68
2021/01/19 05:58:16;;;;;;;8.32;2.10;;;5.40;99.90;;;;;;5072988;28;20187;-68
2021/01/19 06:00:42;;;;;;;4.35;1.63;;;5.30;99.90;;;;;;5072972;28;20192;-68
2021/01/19 06:03:16;;;;;;;7.30;2.40;;;5.40;99.90;;;;;;5072950;28;20179;-68
2021/01/19 06:05:42;;;;;;;5.88;2.03;;;5.30;99.90;;;;;;5072808;28;20177;-68
2021/01/19 06:08:11;;;;;;;2.50;1.40;;;5.30;99.90;;;;;;5072279;28;20241;-68
2021/01/19 06:10:38;;;;;;;6.13;2.00;;;5.30;99.90;;;;;;5072588;28;20188;-68
2021/01/19 06:13:14;;;;;;;13.68;1.88;;;5.40;99.90;;;;;;5072875;28;20161;-68
2021/01/19 06:15:40;;;;;;;4.15;2.30;;;5.30;99.90;;;;;;5073018;28;20513;-68
2021/01/19 06:18:07;;;;;;;7.88;1.80;;;5.20;99.90;;;;;;5072905;28;20173;-68
2021/01/19 06:20:40;;;;;;;5.15;1.80;;;5.20;99.90;;;;;;5072532;28;20192;-68
2021/01/19 06:23:06;;;;;;;10.68;3.25;;;5.30;99.90;;;;;;5072561;28;20188;-68
2021/01/19 06:25:32;;;;;;;6.45;2.80;;;5.20;99.90;;;;;;5072718;28;20593;-67
2021/01/19 06:28:09;;;;;;;6.17;2.03;;;5.20;99.90;;;;;;5072760;28;20276;-68
2021/01/19 06:30:36;;;;;;;7.25;1.80;;;5.20;99.90;;;;;;5072486;28;20426;-68
2021/01/19 06:33:02;;;;;;;6.22;2.72;;;5.30;99.90;;;;;;5072693;28;20195;-68
2021/01/19 06:35:29;;;;;;;8.85;2.35;;;5.20;99.90;;;;;;5072790;28;20267;-68
2021/01/19 06:37:54;;;;;;;7.45;1.88;;;5.40;99.90;;;;;;5072390;28;20535;-68
2021/01/19 06:40:25;;;;;;;7.83;3.17;;;5.40;99.90;;;;;;5072628;28;20195;-68
2021/01/19 06:42:58;;;;;;;7.25;2.33;;;5.30;99.90;;;;;;5072624;28;20160;-68
2021/01/19 06:45:24;;;;;;;5.63;1.90;;;5.30;99.90;;;;;;5072170;28;20172;-67
2021/01/19 06:47:51;;;;;;;7.00;2.57;;;5.30;1.00;;;;;;5072174;28;20253;-67
2021/01/19 06:50:22;;;;;;;3.90;1.50;;;5.30;1.00;;;;;;5072361;28;20428;-68
2021/01/19 06:53:22;;;;;;;7.22;1.90;;;5.30;1.00;;;;;;5073074;28;20478;-68
2021/01/19 06:55:57;;;;;;;5.47;1.65;;;5.30;1.00;;;;;;5073142;28;20613;-68
2021/01/19 06:58:56;;;;;;;4.18;1.95;;;5.20;1.00;;;;;;5072661;28;20224;-68
2021/01/19 07:01:29;;;;;;;7.28;1.98;;;5.40;1.00;;;;;;5072830;28;20176;-67
2021/01/19 07:04:13;;;;;;;4.80;1.55;;;5.30;1.00;;;;;;5076420;28;20199;-68
2021/01/19 07:07:14;;;;;;;2.85;1.48;;;5.30;99.90;;;;;;5076817;28;20148;-68
2021/01/19 07:10:05;;;;;;;3.28;0.90;;;5.40;1.00;;;;;;5076404;28;20210;-67
2021/01/19 07:12:56;;;;;;;2.15;0.90;;;5.40;1.00;;;;;;5076143;28;20156;-67
2021/01/19 07:15:34;;;;;;;5.85;2.03;;;5.40;1.00;;;;;;5076051;28;20160;-68
2021/01/19 07:18:18;;;;;;;7.60;2.47;;;5.30;1.00;;;;;;5076229;28;20598;-68
2021/01/19 07:21:03;;;;;;;3.88;1.60;;;5.30;1.00;;;;;;5075561;28;20195;-68
2021/01/19 07:24:07;;;;;;;5.25;0.75;;;5.30;1.00;;;;;;5074030;28;20517;-68
2021/01/19 07:26:38;;;;;;;4.75;1.38;;;5.30;1.00;;;;;;5075737;28;20170;-68
2021/01/19 07:29:04;;;;;;;2.42;1.20;;;5.50;99.90;;;;;;5074924;28;20184;-68
2021/01/19 07:31:30;;;;;;;5.50;1.20;;;5.60;99.90;;;;;;5075454;28;20594;-68
2021/01/19 07:33:59;;;;;;;4.30;1.17;;;5.40;1.00;;;;;;5075393;28;20396;-68
2021/01/19 07:36:26;;;;;;;2.55;1.25;;;5.50;1.00;;;;;;5075478;28;20448;-68
2021/01/19 07:38:52;;;;;;;8.55;1.50;;;5.50;1.00;;;;;;5075229;28;20172;-67
2021/01/19 07:41:35;;;;;;;1.60;1.00;;;5.50;1.00;;;;;;5075105;28;20283;-68
2021/01/19 07:44:02;;;;;;;5.95;1.38;;;5.60;1.00;;;;;;5074938;28;20253;-68
2021/01/19 07:46:29;;;;;;;9.43;1.73;;;5.50;1.00;;;;;;5075028;28;20160;-67
2021/01/19 07:49:04;;;;;;;3.78;1.20;;;5.50;1.00;;;;;;5074332;28;20286;-68
2021/01/19 07:51:42;;;;;;;3.20;1.00;;;5.60;1.00;;;;;;5073771;28;20172;-68
2021/01/19 07:54:08;;;;;;;2.72;1.10;;;5.40;1.00;;;;;;5075127;28;20656;-68
2021/01/19 07:56:34;;;;;;;5.18;1.35;;;5.50;1.00;;;;;;5075046;28;20511;-68
2021/01/19 07:59:00;;;;;;;1.83;1.00;;;5.50;1.00;;;;;;5075143;28;20217;-68
2021/01/19 08:01:28;;;;;;;4.60;1.60;;;5.50;1.00;;;;;;5074651;28;20168;-67
2021/01/19 08:03:54;;;;;;;5.50;1.42;;;5.40;1.00;;;;;;5074646;28;20168;-67
2021/01/19 08:06:31;;;;;;;5.03;1.30;;;5.50;1.00;;;;;;5074794;28;20176;-68
2021/01/19 08:09:08;;;;;;;3.10;1.50;;;5.40;6.20;;;;;;5074946;28;20195;-68
2021/01/19 08:11:34;;;;;;;5.32;1.70;;;5.50;1.00;;;;;;5074797;28;20175;-68
2021/01/19 08:14:00;;;;;;;2.23;1.40;;;5.60;1.00;;;;;;5073332;28;20214;-68
2021/01/19 08:16:32;;;;;;;4.63;2.05;;;5.50;1.00;;;;;;5074978;28;20260;-67
2021/01/19 08:19:09;;;;;;;4.00;2.45;;;5.40;1.00;;;;;;5074972;28;20161;-68
2021/01/19 08:21:57;;;;;;;3.25;1.80;;;5.50;1.00;;;;;;5074464;28;20188;-68
2021/01/19 08:24:24;;;;;;;1.60;1.15;;;5.40;10.20;;;;;;5072700;28;20219;-68
2021/01/19 08:26:51;;;;;;;5.60;1.50;;;5.30;1.00;;;;;;5074329;28;20536;-67
2021/01/19 08:29:22;;;;;;;2.42;1.35;;;5.30;14.10;;;;;;5074245;28;20191;-68
2021/01/19 08:31:52;;;;;;;3.30;1.50;;;5.50;8.20;;;;;;5074028;28;20168;-68
2021/01/19 08:34:19;;;;;;;4.32;1.50;;;5.50;99.90;;;;;;5073804;28;20167;-68
2021/01/19 08:36:46;;;;;;;3.00;1.73;;;5.40;11.20;;;;;;5073943;28;20259;-68
2021/01/19 08:39:15;;;;;;;2.97;1.83;;;5.40;1.00;;;;;;5074012;28;20168;-68
2021/01/19 08:41:46;;;;;;;3.08;1.05;;;5.40;1.00;;;;;;5073885;28;20172;-68
2021/01/19 08:44:13;;;;;;;2.95;1.08;;;5.40;96.50;;;;;;5074129;28;20165;-68
2021/01/19 08:46:39;;;;;;;3.45;1.30;;;5.40;99.90;;;;;;5073625;28;20172;-68
2021/01/19 08:49:09;;;;;;;1.75;1.15;;;5.40;99.90;;;;;;5073639;28;20219;-68
2021/01/19 08:51:35;;;;;;;4.40;1.65;;;5.40;1.00;;;;;;5073790;28;20164;-68
2021/01/19 08:54:06;;;;;;;3.70;1.65;;;5.60;99.90;;;;;;5073670;28;20179;-68
2021/01/19 08:56:32;;;;;;;6.10;1.90;;;5.50;1.00;;;;;;5073920;28;20234;-68
2021/01/19 08:58:57;;;;;;;2.27;1.37;;;5.50;54.60;;;;;;5073474;28;20247;-68
2021/01/19 09:01:23;;;;;;;5.13;2.00;;;5.60;1.00;;;;;;5073585;28;20164;-68
2021/01/19 09:03:55;;;;;;;2.87;1.57;;;5.50;1.00;;;;;;5073548;28;20661;-67
2021/01/19 09:06:21;;;;;;;1.42;1.30;;;5.40;1.00;;;;;;5073995;28;20164;-68
2021/01/19 09:08:56;;;;;;;3.90;1.83;;;5.40;1.00;;;;;;5073285;28;20555;-68
2021/01/19 09:11:28;;;;;;;4.30;1.50;;;5.50;1.00;;;;;;5073273;28;20187;-68
2021/01/19 09:14:06;;;;;;;2.03;1.30;;;5.40;1.00;;;;;;5072364;28;20164;-68
2021/01/19 09:16:32;;;;;;;2.78;1.80;;;5.40;9.10;;;;;;5073739;28;20254;-69
2021/01/19 09:18:59;;;;;;;3.00;1.70;;;5.50;99.90;;;;;;5073260;28;20176;-69
2021/01/19 09:21:26;;;;;;;6.25;1.88;;;5.50;95.40;;;;;;5073133;28;20437;-68
2021/01/19 09:23:52;;;;;;;2.05;1.10;;;5.40;97.60;;;;;;5072559;28;20266;-68
2021/01/19 09:26:18;;;;;;;2.10;1.10;;;5.50;99.90;;;;;;5072952;28;20172;-68
2021/01/19 09:28:43;;;;;;;1.20;1.00;;;5.30;99.90;;;;;;5072928;28;20446;-68
2021/01/19 09:31:16;;;;;;;2.00;0.90;;;5.50;83.60;;;;;;5072935;28;20895;-68
2021/01/19 09:33:46;;;;;;;1.95;0.95;;;5.50;1.00;;;;;;5073016;28;20722;-68
2021/01/19 09:36:13;;;;;;;3.63;1.20;;;5.50;99.90;;;;;;5073023;28;20630;-69
2021/01/19 09:38:40;;;;;;;1.77;0.70;;;5.50;99.90;;;;;;5072810;28;20191;-68
2021/01/19 09:41:06;;;;;;;1.30;0.70;;;5.50;99.90;;;;;;5072720;28;20199;-68
2021/01/19 09:43:32;;;;;;;1.42;0.90;;;5.60;85.30;;;;;;5072660;28;20321;-68
2021/01/19 09:46:06;;;;;;;1.55;0.88;;;5.60;99.90;;;;;;5072792;28;20172;-68
2021/01/19 09:48:34;;;;;;;3.75;0.75;;;5.60;99.90;;;;;;5072735;28;20300;-68
2021/01/19 09:51:04;;;;;;;2.55;0.93;;;5.60;99.90;;;;;;5072519;28;20183;-69
2021/01/19 09:53:33;;;;;;;2.33;0.70;;;5.70;99.90;;;;;;5072563;28;20156;-68
2021/01/19 09:56:13;;;;;;;5.68;1.10;;;5.60;99.90;;;;;;5072780;28;20217;-69
2021/01/19 09:58:38;;;;;;;5.78;1.00;;;5.70;99.90;;;;;;5072697;28;20152;-67
2021/01/19 10:01:05;;;;;;;8.83;1.53;;;5.60;99.90;;;;;;5072673;28;20617;-67
2021/01/19 10:03:33;;;;;;;2.25;0.95;;;5.60;99.90;;;;;;5072710;28;20172;-67
2021/01/19 10:06:07;;;;;;;1.80;0.93;;;5.60;1.00;;;;;;5071621;28;20691;-64
2021/01/19 10:08:36;;;;;;;2.00;0.80;;;5.50;1.00;;;;;;5072529;28;20641;-68
2021/01/19 10:11:02;;;;;;;4.18;0.75;;;5.50;69.60;;;;;;5072582;28;20222;-66
2021/01/19 10:13:31;;;;;;;3.50;0.75;;;5.60;1.00;;;;;;5072419;28;20202;-67
2021/01/19 10:16:06;;;;;;;1.95;0.57;;;5.70;9.70;;;;;;5072577;28;20163;-67
2021/01/19 10:18:33;;;;;;;1.00;0.60;;;5.60;19.50;;;;;;5072928;28;20158;-67
2021/01/19 10:20:59;;;;;;;2.17;0.70;;;5.60;99.90;;;;;;5072822;28;20188;-68
2021/01/19 10:23:32;;;;;;;2.55;0.80;;;5.70;1.00;;;;;;5072829;28;20168;-68
2021/01/19 10:26:09;;;;;;;1.17;0.60;;;5.70;1.00;;;;;;5072457;28;20179;-68
2021/01/19 10:28:43;;;;;;;3.00;0.50;;;5.70;1.00;;;;;;5072469;28;20207;-68
2021/01/19 10:31:18;;;;;;;0.90;0.52;;;5.70;1.00;;;;;;5072355;28;20202;-68
2021/01/19 10:33:58;;;;;;;1.15;0.55;;;5.70;1.00;;;;;;5071791;28;20636;-67
2021/01/19 10:36:25;;;;;;;1.27;0.75;;;5.80;99.90;;;;;;5075703;28;20583;-67
2021/01/19 10:38:51;;;;;;;2.53;0.70;;;5.90;10.60;;;;;;5076368;28;20176;-66
2021/01/19 10:41:28;;;;;;;4.95;1.15;;;5.80;1.00;;;;;;5076485;28;20210;-68
2021/01/19 10:43:54;;;;;;;1.13;0.88;;;5.80;1.00;;;;;;5076460;28;20235;-68
2021/01/19 10:46:26;;;;;;;2.03;0.70;;;5.80;99.90;;;;;;5076224;28;20169;-67
2021/01/19 10:49:18;;;;;;;3.63;1.00;;;5.90;54.80;;;;;;5076031;28;20249;-68
2021/01/19 10:51:49;;;;;;;1.05;0.40;;;5.90;1.00;;;;;;5074071;28;20226;-68
2021/01/19 10:54:16;;;;;;;1.17;0.60;;;5.80;1.00;;;;;;5076519;28;20613;-68
2021/01/19 10:56:44;;;;;;;1.60;0.70;;;5.80;99.90;;;;;;5075942;28;20160;-68
2021/01/19 10:59:10;;;;;;;1.02;0.60;;;5.80;99.90;;;;;;5075880;28;20196;-68
2021/01/19 11:01:36;;;;;;;1.73;0.80;;;5.80;99.90;;;;;;5076029;28;20194;-67
2021/01/19 11:04:03;;;;;;;1.00;0.70;;;5.90;99.90;;;;;;5075652;28;20164;-68
2021/01/19 11:06:33;;;;;;;4.55;0.70;;;6.00;1.00;;;;;;5075449;28;20179;-68
2021/01/19 11:08:59;;;;;;;0.95;0.50;;;6.10;99.90;;;;;;5075790;28;20310;-67
2021/01/19 11:11:26;;;;;;;0.90;0.57;;;6.00;99.90;;;;;;5075814;28;20196;-66
2021/01/19 11:13:52;;;;;;;1.65;1.08;;;6.00;99.90;;;;;;5075697;28;20294;-68
2021/01/19 11:16:18;;;;;;;2.03;0.80;;;6.00;1.00;;;;;;5075653;28;20184;-67
2021/01/19 11:18:43;;;;;;;1.63;0.60;;;6.10;99.90;;;;;;5075322;28;20916;-68
2021/01/19 11:21:10;;;;;;;1.47;0.63;;;6.10;99.90;;;;;;5075641;28;20270;-68
2021/01/19 11:23:36;;;;;;;1.90;0.60;;;6.10;1.00;;;;;;5075679;28;20641;-68
2021/01/19 11:26:01;;;;;;;2.17;1.10;;;6.10;99.90;;;;;;5075637;28;20179;-69
2021/01/19 11:28:27;;;;;;;1.47;0.60;;;6.20;99.90;;;;;;5076414;28;20505;-67
2021/01/19 11:30:53;;;;;;;1.10;0.70;;;6.30;99.90;;;;;;5079961;28;20204;-69
2021/01/19 11:33:19;;;;;;;2.28;0.75;;;6.30;94.20;;;;;;5079170;28;20175;-70
2021/01/19 11:35:44;;;;;;;1.53;0.73;;;6.30;55.90;;;;;;5076135;28;20176;-68
2021/01/19 11:38:10;;;;;;;2.40;0.60;;;6.40;27.20;;;;;;5076683;28;20164;-68
2021/01/19 11:40:36;;;;;;;0.90;0.60;;;6.30;1.00;;;;;;5076178;28;20191;-68
2021/01/19 11:43:01;;;;;;;1.70;1.00;;;6.40;34.80;;;;;;5075363;28;20194;-68
2021/01/19 11:45:28;;;;;;;2.13;1.10;;;6.40;1.00;;;;;;5074452;28;20637;-67
2021/01/19 11:47:54;;;;;;;1.80;0.90;;;6.30;18.50;;;;;;5073890;28;20320;-68
2021/01/19 11:50:20;;;;;;;2.38;0.60;;;6.40;99.90;;;;;;5075048;28;20184;-68
2021/01/19 11:52:46;;;;;;;2.40;0.80;;;6.60;66.50;;;;;;5075172;28;20664;-68
2021/01/19 11:55:12;;;;;;;1.50;0.70;;;6.60;1.00;;;;;;5075106;28;20160;-68
2021/01/19 11:57:38;;;;;;;2.30;0.80;;;6.70;1.00;;;;;;5074789;28;20404;-70
2021/01/19 12:00:08;;;;;;;4.10;1.23;;;6.80;1.00;;;;;;5073431;28;20202;-68
2021/01/19 12:02:34;;;;;;;2.15;0.90;;;6.90;1.00;;;;;;5074670;28;20180;-68
2021/01/19 12:05:01;;;;;;;4.47;1.63;;;6.90;1.00;;;;;;5074666;28;20178;-67
2021/01/19 12:07:27;;;;;;;8.55;2.22;;;7.00;1.00;;;;;;5074638;28;20682;-67
2021/01/19 12:09:52;;;;;;;3.05;0.80;;;6.90;1.00;;;;;;5075055;28;20190;-67
2021/01/19 12:12:18;;;;;;;2.30;0.90;;;6.90;1.00;;;;;;5075176;28;20239;-67
2021/01/19 12:14:44;;;;;;;6.30;1.70;;;6.70;1.00;;;;;;5074544;28;20172;-68
2021/01/19 12:17:10;;;;;;;3.27;0.93;;;6.80;1.00;;;;;;5074586;28;20172;-67
2021/01/19 12:19:35;;;;;;;2.53;1.30;;;6.90;1.00;;;;;;5073389;28;20442;-68
2021/01/19 12:22:01;;;;;;;2.60;1.17;;;7.00;1.00;;;;;;5074420;28;20208;-67
2021/01/19 12:24:27;;;;;;;3.40;1.10;;;7.00;1.00;;;;;;5072878;28;20172;-67
2021/01/19 12:26:56;;;;;;;2.58;1.10;;;6.90;1.00;;;;;;5074240;28;20755;-68
2021/01/19 12:29:23;;;;;;;3.45;1.90;;;7.00;1.00;;;;;;5074280;28;20207;-67
2021/01/19 12:31:49;;;;;;;11.10;2.10;;;7.10;1.00;;;;;;5074448;28;20290;-68
2021/01/19 12:34:16;;;;;;;3.03;1.15;;;7.20;1.00;;;;;;5073995;28;20696;-67
2021/01/19 12:36:42;;;;;;;3.15;1.00;;;7.40;1.00;;;;;;5073523;28;20168;-68
2021/01/19 12:39:07;;;;;;;8.93;1.57;;;7.30;49.90;;;;;;5074200;28;20639;-68
2021/01/19 12:41:33;;;;;;;2.63;1.90;;;7.30;1.10;;;;;;5073850;28;20168;-69
2021/01/19 12:44:04;;;;;;;1.60;1.17;;;7.50;99.90;;;;;;5073852;28;20169;-68
2021/01/19 12:46:29;;;;;;;2.95;1.70;;;7.70;92.80;;;;;;5074026;28;20168;-68
2021/01/19 12:48:55;;;;;;;1.57;0.67;;;7.90;1.00;;;;;;5073807;28;20235;-67
2021/01/19 12:51:22;;;;;;;1.13;0.68;;;8.00;1.00;;;;;;5074185;28;20168;-66
2021/01/19 12:53:49;;;;;;;2.33;0.63;;;8.00;1.00;;;;;;5074526;28;20188;-68
2021/01/19 12:56:16;;;;;;;2.85;0.70;;;8.00;1.00;;;;;;5073850;28;20202;-68
2021/01/19 12:58:43;;;;;;;0.90;0.50;;;8.10;1.00;;;;;;5072951;28;20172;-69
2021/01/19 13:01:10;;;;;;;0.90;0.60;;;8.10;1.00;;;;;;5073835;28;20188;-68
2021/01/19 13:03:36;;;;;;;3.10;1.67;;;8.20;1.00;;;;;;5073712;28;20518;-69
2021/01/19 13:06:02;;;;;;;1.33;0.80;;;8.30;1.00;;;;;;5073888;28;20182;-68
2021/01/19 13:08:27;;;;;;;2.33;1.17;;;8.30;1.00;;;;;;5073622;28;20461;-67
2021/01/19 13:10:53;;;;;;;1.57;0.60;;;8.30;1.00;;;;;;5071975;28;20426;-67
2021/01/19 13:13:18;;;;;;;0.80;0.53;;;8.40;99.90;;;;;;5073963;28;20529;-69
2021/01/19 13:15:45;;;;;;;2.80;1.00;;;8.40;99.90;;;;;;5073394;28;20207;-67